sensor_id;sensor_type;location;lat;lon;timestamp;temperature;humidity
3194;DHT22;1608;50.860;13.466;2022-11-02T00:04:45;10.40;99.90
3194;DHT22;1608;50.860;13.466;2022-11-02T00:09:38;11.20;99.90
3194;DHT22;1608;50.860;13.466;2022-11-02T00:12:06;11.10;99.90
3194;DHT22;1608;50.860;13.466;2022-11-02T00:14:34;11.10;99.90
3194;DHT22;1608;50.860;13.466;2022-11-02T00:19:28;11.30;99.90
3194;DHT22;1608;50.860;13.466;2022-11-02T00:26:50;11.10;99.90
3194;DHT22;1608;50.860;13.466;2022-11-02T00:29:18;11.30;99.90
3194;DHT22;1608;50.860;13.466;2022-11-02T00:31:46;11.20;99.90
3194;DHT22;1608;50.860;13.466;2022-11-02T00:34:13;11.10;99.90
3194;DHT22;1608;50.860;13.466;2022-11-02T00:36:40;10.80;99.90
3194;DHT22;1608;50.860;13.466;2022-11-02T00:39:06;11.00;99.90
3194;DHT22;1608;50.860;13.466;2022-11-02T00:46:27;10.80;99.90
3194;DHT22;1608;50.860;13.466;2022-11-02T00:48:55;11.00;99.90
3194;DHT22;1608;50.860;13.466;2022-11-02T00:51:22;10.90;99.90
3194;DHT22;1608;50.860;13.466;2022-11-02T00:56:16;10.80;99.90
3194;DHT22;1608;50.860;13.466;2022-11-02T00:58:42;10.80;99.90
3194;DHT22;1608;50.860;13.466;2022-11-02T01:03:36;10.80;99.90
3194;DHT22;1608;50.860;13.466;2022-11-02T01:06:09;10.80;99.90
3194;DHT22;1608;50.860;13.466;2022-11-02T01:08:37;10.30;99.90
3194;DHT22;1608;50.860;13.466;2022-11-02T01:11:11;10.80;99.90
3194;DHT22;1608;50.860;13.466;2022-11-02T01:16:05;10.60;99.90
3194;DHT22;1608;50.860;13.466;2022-11-02T01:18:32;10.70;99.90
3194;DHT22;1608;50.860;13.466;2022-11-02T01:23:30;10.70;99.90
3194;DHT22;1608;50.860;13.466;2022-11-02T01:30:51;10.60;99.90
3194;DHT22;1608;50.860;13.466;2022-11-02T01:33:18;10.50;99.90
3194;DHT22;1608;50.860;13.466;2022-11-02T01:40:40;10.70;99.90
3194;DHT22;1608;50.860;13.466;2022-11-02T01:43:21;10.50;99.90
3194;DHT22;1608;50.860;13.466;2022-11-02T01:45:50;10.30;99.90
3194;DHT22;1608;50.860;13.466;2022-11-02T01:48:20;10.80;99.90
3194;DHT22;1608;50.860;13.466;2022-11-02T01:50:52;9.60;99.90
3194;DHT22;1608;50.860;13.466;2022-11-02T01:53:18;10.10;99.90
3194;DHT22;1608;50.860;13.466;2022-11-02T01:55:47;9.90;99.90
3194;DHT22;1608;50.860;13.466;2022-11-02T02:03:09;10.10;99.90
3194;DHT22;1608;50.860;13.466;2022-11-02T02:05:39;10.10;99.90
3194;DHT22;1608;50.860;13.466;2022-11-02T02:08:08;10.10;99.90
3194;DHT22;1608;50.860;13.466;2022-11-02T02:13:05;9.90;99.90
3194;DHT22;1608;50.860;13.466;2022-11-02T02:15:39;10.00;99.90
3194;DHT22;1608;50.860;13.466;2022-11-02T02:18:13;9.90;99.90
3194;DHT22;1608;50.860;13.466;2022-11-02T02:20:54;9.90;99.90
3194;DHT22;1608;50.860;13.466;2022-11-02T02:23:53;9.80;99.90
3194;DHT22;1608;50.860;13.466;2022-11-02T02:26:44;9.80;99.90
3194;DHT22;1608;50.860;13.466;2022-11-02T02:29:18;10.30;99.90
3194;DHT22;1608;50.860;13.466;2022-11-02T02:31:52;9.70;99.90
3194;DHT22;1608;50.860;13.466;2022-11-02T02:34:24;10.10;99.90
3194;DHT22;1608;50.860;13.466;2022-11-02T02:36:56;9.60;99.90
3194;DHT22;1608;50.860;13.466;2022-11-02T02:39:26;9.60;99.90
3194;DHT22;1608;50.860;13.466;2022-11-02T02:41:59;9.50;99.90
3194;DHT22;1608;50.860;13.466;2022-11-02T02:44:32;9.60;99.90
3194;DHT22;1608;50.860;13.466;2022-11-02T02:47:03;9.40;99.90
3194;DHT22;1608;50.860;13.466;2022-11-02T02:49:36;9.30;99.90
3194;DHT22;1608;50.860;13.466;2022-11-02T02:52:05;9.20;99.90
3194;DHT22;1608;50.860;13.466;2022-11-02T02:54:36;9.80;99.90
3194;DHT22;1608;50.860;13.466;2022-11-02T02:57:07;9.00;99.90
3194;DHT22;1608;50.860;13.466;2022-11-02T02:59:38;9.30;99.90
3194;DHT22;1608;50.860;13.466;2022-11-02T03:02:09;9.10;99.90
3194;DHT22;1608;50.860;13.466;2022-11-02T03:09:35;9.20;99.90
3194;DHT22;1608;50.860;13.466;2022-11-02T03:12:21;9.00;99.90
3194;DHT22;1608;50.860;13.466;2022-11-02T03:15:02;9.00;99.90
3194;DHT22;1608;50.860;13.466;2022-11-02T03:17:49;9.00;99.90
3194;DHT22;1608;50.860;13.466;2022-11-02T03:20:24;8.90;99.90
3194;DHT22;1608;50.860;13.466;2022-11-02T03:23:01;8.90;99.90
3194;DHT22;1608;50.860;13.466;2022-11-02T03:25:38;9.30;99.90
3194;DHT22;1608;50.860;13.466;2022-11-02T03:28:10;8.80;99.90
3194;DHT22;1608;50.860;13.466;2022-11-02T03:30:43;8.80;99.90
3194;DHT22;1608;50.860;13.466;2022-11-02T03:33:16;9.00;99.90
3194;DHT22;1608;50.860;13.466;2022-11-02T03:35:50;9.20;99.90
3194;DHT22;1608;50.860;13.466;2022-11-02T03:38:20;8.90;99.90
3194;DHT22;1608;50.860;13.466;2022-11-02T03:40:49;8.90;99.90
3194;DHT22;1608;50.860;13.466;2022-11-02T03:43:18;8.70;99.90
3194;DHT22;1608;50.860;13.466;2022-11-02T03:45:51;8.60;99.90
3194;DHT22;1608;50.860;13.466;2022-11-02T03:48:20;8.40;99.90
3194;DHT22;1608;50.860;13.466;2022-11-02T03:50:49;8.60;99.90
3194;DHT22;1608;50.860;13.466;2022-11-02T03:53:21;8.40;99.90
3194;DHT22;1608;50.860;13.466;2022-11-02T03:55:54;8.60;99.90
3194;DHT22;1608;50.860;13.466;2022-11-02T03:58:23;8.50;99.90
3194;DHT22;1608;50.860;13.466;2022-11-02T04:00:54;8.50;99.90
3194;DHT22;1608;50.860;13.466;2022-11-02T04:03:22;8.50;99.90
3194;DHT22;1608;50.860;13.466;2022-11-02T04:05:49;8.60;99.90
3194;DHT22;1608;50.860;13.466;2022-11-02T04:08:21;8.60;99.90
3194;DHT22;1608;50.860;13.466;2022-11-02T04:10:51;8.50;99.90
3194;DHT22;1608;50.860;13.466;2022-11-02T04:13:36;8.60;99.90
3194;DHT22;1608;50.860;13.466;2022-11-02T04:16:22;8.50;99.90
3194;DHT22;1608;50.860;13.466;2022-11-02T04:24:00;8.40;99.90
3194;DHT22;1608;50.860;13.466;2022-11-02T04:26:45;8.30;99.90
3194;DHT22;1608;50.860;13.466;2022-11-02T04:31:40;8.40;99.90
3194;DHT22;1608;50.860;13.466;2022-11-02T04:34:06;8.70;99.90
3194;DHT22;1608;50.860;13.466;2022-11-02T04:36:32;8.70;99.90
3194;DHT22;1608;50.860;13.466;2022-11-02T04:38:59;8.50;99.90
3194;DHT22;1608;50.860;13.466;2022-11-02T04:41:25;8.80;99.90
3194;DHT22;1608;50.860;13.466;2022-11-02T04:44:12;8.90;99.90
3194;DHT22;1608;50.860;13.466;2022-11-02T04:46:42;9.00;99.90
3194;DHT22;1608;50.860;13.466;2022-11-02T04:49:10;10.00;99.90
3194;DHT22;1608;50.860;13.466;2022-11-02T04:51:37;9.20;99.90
3194;DHT22;1608;50.860;13.466;2022-11-02T04:56:32;9.20;99.90
3194;DHT22;1608;50.860;13.466;2022-11-02T05:01:28;9.20;99.90
3194;DHT22;1608;50.860;13.466;2022-11-02T05:03:56;9.40;99.90
3194;DHT22;1608;50.860;13.466;2022-11-02T05:06:24;9.10;99.90
3194;DHT22;1608;50.860;13.466;2022-11-02T05:08:51;9.60;99.90
3194;DHT22;1608;50.860;13.466;2022-11-02T05:13:45;9.70;99.90
3194;DHT22;1608;50.860;13.466;2022-11-02T05:16:13;9.70;99.90
3194;DHT22;1608;50.860;13.466;2022-11-02T05:18:40;9.70;99.90
3194;DHT22;1608;50.860;13.466;2022-11-02T05:21:10;10.00;99.90
3194;DHT22;1608;50.860;13.466;2022-11-02T05:26:06;9.70;99.90
3194;DHT22;1608;50.860;13.466;2022-11-02T05:28:34;9.70;99.90
3194;DHT22;1608;50.860;13.466;2022-11-02T05:31:01;9.70;99.90
3194;DHT22;1608;50.860;13.466;2022-11-02T05:33:29;9.80;99.90
3194;DHT22;1608;50.860;13.466;2022-11-02T05:38:25;9.70;99.90
3194;DHT22;1608;50.860;13.466;2022-11-02T05:40:52;10.00;99.90
3194;DHT22;1608;50.860;13.466;2022-11-02T05:43:19;9.90;99.90
3194;DHT22;1608;50.860;13.466;2022-11-02T05:45:51;10.00;99.90
3194;DHT22;1608;50.860;13.466;2022-11-02T05:48:18;9.90;99.90
3194;DHT22;1608;50.860;13.466;2022-11-02T05:50:46;9.80;99.90
3194;DHT22;1608;50.860;13.466;2022-11-02T05:53:13;9.90;99.90
3194;DHT22;1608;50.860;13.466;2022-11-02T05:55:41;9.90;99.90
3194;DHT22;1608;50.860;13.466;2022-11-02T05:58:07;10.30;99.90
3194;DHT22;1608;50.860;13.466;2022-11-02T06:00:34;10.10;99.90
3194;DHT22;1608;50.860;13.466;2022-11-02T06:03:01;10.10;99.90
3194;DHT22;1608;50.860;13.466;2022-11-02T06:07:57;9.40;99.90
3194;DHT22;1608;50.860;13.466;2022-11-02T06:10:25;10.10;99.90
3194;DHT22;1608;50.860;13.466;2022-11-02T06:12:57;10.30;99.90
3194;DHT22;1608;50.860;13.466;2022-11-02T06:17:51;10.10;99.90
3194;DHT22;1608;50.860;13.466;2022-11-02T06:22:45;10.70;99.90
3194;DHT22;1608;50.860;13.466;2022-11-02T06:25:12;10.60;99.90
3194;DHT22;1608;50.860;13.466;2022-11-02T06:30:09;10.90;99.90
3194;DHT22;1608;50.860;13.466;2022-11-02T06:32:36;11.40;99.90
3194;DHT22;1608;50.860;13.466;2022-11-02T06:35:03;11.30;99.90
3194;DHT22;1608;50.860;13.466;2022-11-02T06:37:32;11.40;99.90
3194;DHT22;1608;50.860;13.466;2022-11-02T06:39:59;11.50;99.90
3194;DHT22;1608;50.860;13.466;2022-11-02T06:47:30;11.60;99.90
3194;DHT22;1608;50.860;13.466;2022-11-02T06:57:19;11.40;99.90
3194;DHT22;1608;50.860;13.466;2022-11-02T07:04:41;11.20;99.90
3194;DHT22;1608;50.860;13.466;2022-11-02T07:12:02;11.70;99.90
3194;DHT22;1608;50.860;13.466;2022-11-02T07:14:29;11.70;99.90
3194;DHT22;1608;50.860;13.466;2022-11-02T07:16:56;11.40;99.90
3194;DHT22;1608;50.860;13.466;2022-11-02T07:19:22;11.30;99.90
3194;DHT22;1608;50.860;13.466;2022-11-02T07:21:50;11.80;99.90
3194;DHT22;1608;50.860;13.466;2022-11-02T07:26:46;12.00;99.90
3194;DHT22;1608;50.860;13.466;2022-11-02T07:39:03;12.80;99.90
3194;DHT22;1608;50.860;13.466;2022-11-02T07:41:31;13.20;99.90
3194;DHT22;1608;50.860;13.466;2022-11-02T07:53:46;14.70;99.90
3194;DHT22;1608;50.860;13.466;2022-11-02T07:56:14;15.00;99.90
3194;DHT22;1608;50.860;13.466;2022-11-02T07:58:41;15.20;99.90
3194;DHT22;1608;50.860;13.466;2022-11-02T08:01:07;15.40;99.90
3194;DHT22;1608;50.860;13.466;2022-11-02T08:03:34;15.30;99.90
3194;DHT22;1608;50.860;13.466;2022-11-02T08:06:01;15.80;99.90
3194;DHT22;1608;50.860;13.466;2022-11-02T08:11:03;16.10;99.90
3194;DHT22;1608;50.860;13.466;2022-11-02T08:13:31;16.30;99.90
3194;DHT22;1608;50.860;13.466;2022-11-02T08:15:58;16.10;99.90
3194;DHT22;1608;50.860;13.466;2022-11-02T08:18:26;16.40;99.90
3194;DHT22;1608;50.860;13.466;2022-11-02T08:20:54;16.00;99.90
3194;DHT22;1608;50.860;13.466;2022-11-02T08:23:21;16.10;99.90
3194;DHT22;1608;50.860;13.466;2022-11-02T08:25:49;16.10;99.90
3194;DHT22;1608;50.860;13.466;2022-11-02T08:28:18;16.10;99.90
3194;DHT22;1608;50.860;13.466;2022-11-02T08:30:47;16.30;99.90
3194;DHT22;1608;50.860;13.466;2022-11-02T08:33:15;16.10;99.90
3194;DHT22;1608;50.860;13.466;2022-11-02T08:35:43;16.10;99.90
3194;DHT22;1608;50.860;13.466;2022-11-02T08:38:12;16.20;99.90
3194;DHT22;1608;50.860;13.466;2022-11-02T08:40:39;16.20;99.90
3194;DHT22;1608;50.860;13.466;2022-11-02T08:43:08;16.30;99.90
3194;DHT22;1608;50.860;13.466;2022-11-02T08:45:36;16.50;99.90
3194;DHT22;1608;50.860;13.466;2022-11-02T08:48:06;16.40;99.90
3194;DHT22;1608;50.860;13.466;2022-11-02T08:50:34;16.30;99.90
3194;DHT22;1608;50.860;13.466;2022-11-02T08:57:56;16.20;99.90
3194;DHT22;1608;50.860;13.466;2022-11-02T09:00:24;15.90;99.90
3194;DHT22;1608;50.860;13.466;2022-11-02T09:03:00;15.80;99.90
3194;DHT22;1608;50.860;13.466;2022-11-02T09:05:29;15.80;99.90
3194;DHT22;1608;50.860;13.466;2022-11-02T09:07:57;15.70;99.90
3194;DHT22;1608;50.860;13.466;2022-11-02T09:10:24;16.20;99.90
3194;DHT22;1608;50.860;13.466;2022-11-02T09:12:51;15.50;99.90
3194;DHT22;1608;50.860;13.466;2022-11-02T09:15:18;15.70;99.90
3194;DHT22;1608;50.860;13.466;2022-11-02T09:17:46;15.50;99.90
3194;DHT22;1608;50.860;13.466;2022-11-02T09:22:41;15.50;99.90
3194;DHT22;1608;50.860;13.466;2022-11-02T09:25:09;15.60;99.90
3194;DHT22;1608;50.860;13.466;2022-11-02T09:30:03;15.50;99.90
3194;DHT22;1608;50.860;13.466;2022-11-02T09:32:30;15.50;99.90
3194;DHT22;1608;50.860;13.466;2022-11-02T09:37:25;15.80;99.90
3194;DHT22;1608;50.860;13.466;2022-11-02T09:39:54;16.10;99.90
3194;DHT22;1608;50.860;13.466;2022-11-02T09:42:24;16.20;99.90
3194;DHT22;1608;50.860;13.466;2022-11-02T09:44:55;16.20;99.90
3194;DHT22;1608;50.860;13.466;2022-11-02T09:47:24;16.10;99.90
3194;DHT22;1608;50.860;13.466;2022-11-02T09:49:52;16.10;99.90
3194;DHT22;1608;50.860;13.466;2022-11-02T09:52:24;16.10;99.90
3194;DHT22;1608;50.860;13.466;2022-11-02T09:54:55;16.00;99.90
3194;DHT22;1608;50.860;13.466;2022-11-02T09:57:27;16.30;99.90
3194;DHT22;1608;50.860;13.466;2022-11-02T10:02:42;16.30;99.90
3194;DHT22;1608;50.860;13.466;2022-11-02T10:05:25;16.40;99.90
3194;DHT22;1608;50.860;13.466;2022-11-02T10:08:16;16.30;99.90
3194;DHT22;1608;50.860;13.466;2022-11-02T10:10:55;16.20;99.90
3194;DHT22;1608;50.860;13.466;2022-11-02T10:13:33;18.40;99.90
3194;DHT22;1608;50.860;13.466;2022-11-02T10:16:07;17.00;99.90
3194;DHT22;1608;50.860;13.466;2022-11-02T10:18:36;16.10;99.90
3194;DHT22;1608;50.860;13.466;2022-11-02T10:21:07;16.10;99.90
3194;DHT22;1608;50.860;13.466;2022-11-02T10:23:38;16.30;99.90
3194;DHT22;1608;50.860;13.466;2022-11-02T10:26:13;16.40;99.90
3194;DHT22;1608;50.860;13.466;2022-11-02T10:28:45;16.60;99.90
3194;DHT22;1608;50.860;13.466;2022-11-02T10:31:21;16.50;99.90
3194;DHT22;1608;50.860;13.466;2022-11-02T10:33:49;16.40;99.90
3194;DHT22;1608;50.860;13.466;2022-11-02T10:36:32;16.20;99.90
3194;DHT22;1608;50.860;13.466;2022-11-02T10:39:12;16.10;99.90
3194;DHT22;1608;50.860;13.466;2022-11-02T10:41:55;16.10;99.90
3194;DHT22;1608;50.860;13.466;2022-11-02T10:44:32;15.70;99.90
3194;DHT22;1608;50.860;13.466;2022-11-02T10:47:07;15.90;99.90
3194;DHT22;1608;50.860;13.466;2022-11-02T10:49:55;15.90;99.90
3194;DHT22;1608;50.860;13.466;2022-11-02T10:52:29;16.50;99.90
3194;DHT22;1608;50.860;13.466;2022-11-02T10:54:58;16.00;99.90
3194;DHT22;1608;50.860;13.466;2022-11-02T10:57:27;16.00;99.90
3194;DHT22;1608;50.860;13.466;2022-11-02T11:00:29;16.00;99.90
3194;DHT22;1608;50.860;13.466;2022-11-02T11:03:04;16.10;99.90
3194;DHT22;1608;50.860;13.466;2022-11-02T11:05:31;15.90;99.90
3194;DHT22;1608;50.860;13.466;2022-11-02T11:07:59;15.80;99.90
3194;DHT22;1608;50.860;13.466;2022-11-02T11:10:26;15.80;99.90
3194;DHT22;1608;50.860;13.466;2022-11-02T11:12:55;15.70;99.90
3194;DHT22;1608;50.860;13.466;2022-11-02T11:15:23;15.60;99.90
3194;DHT22;1608;50.860;13.466;2022-11-02T11:17:50;15.70;99.90
3194;DHT22;1608;50.860;13.466;2022-11-02T11:20:31;16.00;99.90
3194;DHT22;1608;50.860;13.466;2022-11-02T11:23:18;15.60;99.90
3194;DHT22;1608;50.860;13.466;2022-11-02T11:25:57;15.60;99.90
3194;DHT22;1608;50.860;13.466;2022-11-02T11:28:28;16.20;99.90
3194;DHT22;1608;50.860;13.466;2022-11-02T11:31:05;15.80;99.90
3194;DHT22;1608;50.860;13.466;2022-11-02T11:33:40;16.00;99.90
3194;DHT22;1608;50.860;13.466;2022-11-02T11:36:08;16.10;99.90
3194;DHT22;1608;50.860;13.466;2022-11-02T11:38:36;16.20;99.90
3194;DHT22;1608;50.860;13.466;2022-11-02T11:41:10;16.20;99.90
3194;DHT22;1608;50.860;13.466;2022-11-02T11:43:39;16.30;99.90
3194;DHT22;1608;50.860;13.466;2022-11-02T11:46:07;16.30;99.90
3194;DHT22;1608;50.860;13.466;2022-11-02T11:48:39;16.10;99.90
3194;DHT22;1608;50.860;13.466;2022-11-02T11:51:26;16.10;99.90
3194;DHT22;1608;50.860;13.466;2022-11-02T11:54:18;16.00;99.90
3194;DHT22;1608;50.860;13.466;2022-11-02T11:59:24;16.20;99.90
3194;DHT22;1608;50.860;13.466;2022-11-02T12:01:55;16.30;99.90
3194;DHT22;1608;50.860;13.466;2022-11-02T12:04:27;16.30;99.90
3194;DHT22;1608;50.860;13.466;2022-11-02T12:09:51;16.20;99.90
3194;DHT22;1608;50.860;13.466;2022-11-02T12:12:27;16.20;99.90
3194;DHT22;1608;50.860;13.466;2022-11-02T12:15:09;16.20;99.90
3194;DHT22;1608;50.860;13.466;2022-11-02T12:17:46;16.10;99.90
3194;DHT22;1608;50.860;13.466;2022-11-02T12:20:29;15.70;99.90
3194;DHT22;1608;50.860;13.466;2022-11-02T12:23:05;15.60;99.90
3194;DHT22;1608;50.860;13.466;2022-11-02T12:25:42;15.50;99.90
3194;DHT22;1608;50.860;13.466;2022-11-02T12:28:19;15.40;99.90
3194;DHT22;1608;50.860;13.466;2022-11-02T12:30:55;15.50;99.90
3194;DHT22;1608;50.860;13.466;2022-11-02T12:33:34;15.40;99.90
3194;DHT22;1608;50.860;13.466;2022-11-02T12:36:14;15.30;99.90
3194;DHT22;1608;50.860;13.466;2022-11-02T12:38:51;14.70;99.90
3194;DHT22;1608;50.860;13.466;2022-11-02T12:41:29;15.20;99.90
3194;DHT22;1608;50.860;13.466;2022-11-02T12:44:08;15.20;99.90
3194;DHT22;1608;50.860;13.466;2022-11-02T12:46:43;15.10;99.90
3194;DHT22;1608;50.860;13.466;2022-11-02T12:49:25;15.20;99.90
3194;DHT22;1608;50.860;13.466;2022-11-02T12:52:00;15.50;99.90
3194;DHT22;1608;50.860;13.466;2022-11-02T12:54:35;15.00;99.90
3194;DHT22;1608;50.860;13.466;2022-11-02T12:57:10;15.00;99.90
3194;DHT22;1608;50.860;13.466;2022-11-02T12:59:38;14.60;99.90
3194;DHT22;1608;50.860;13.466;2022-11-02T13:02:13;15.00;99.90
3194;DHT22;1608;50.860;13.466;2022-11-02T13:04:46;14.90;99.90
3194;DHT22;1608;50.860;13.466;2022-11-02T13:07:19;14.90;99.90
3194;DHT22;1608;50.860;13.466;2022-11-02T13:09:52;15.00;99.90
3194;DHT22;1608;50.860;13.466;2022-11-02T13:12:22;14.90;99.90
3194;DHT22;1608;50.860;13.466;2022-11-02T13:14:51;14.80;99.90
3194;DHT22;1608;50.860;13.466;2022-11-02T13:17:23;14.40;99.90
3194;DHT22;1608;50.860;13.466;2022-11-02T13:19:53;14.80;99.90
3194;DHT22;1608;50.860;13.466;2022-11-02T13:22:26;14.90;99.90
3194;DHT22;1608;50.860;13.466;2022-11-02T13:24:56;14.90;99.90
3194;DHT22;1608;50.860;13.466;2022-11-02T13:27:30;15.40;99.90
3194;DHT22;1608;50.860;13.466;2022-11-02T13:30:00;14.90;99.90
3194;DHT22;1608;50.860;13.466;2022-11-02T13:32:33;15.00;99.90
3194;DHT22;1608;50.860;13.466;2022-11-02T13:35:05;15.20;99.90
3194;DHT22;1608;50.860;13.466;2022-11-02T13:37:41;14.90;99.90
3194;DHT22;1608;50.860;13.466;2022-11-02T13:40:14;14.90;99.90
3194;DHT22;1608;50.860;13.466;2022-11-02T13:45:50;14.50;99.90
3194;DHT22;1608;50.860;13.466;2022-11-02T13:48:39;14.60;99.90
3194;DHT22;1608;50.860;13.466;2022-11-02T13:51:19;14.60;99.90
3194;DHT22;1608;50.860;13.466;2022-11-02T13:53:52;14.30;99.90
3194;DHT22;1608;50.860;13.466;2022-11-02T13:56:22;14.30;99.90
3194;DHT22;1608;50.860;13.466;2022-11-02T13:58:55;14.50;99.90
3194;DHT22;1608;50.860;13.466;2022-11-02T14:01:23;14.60;99.90
3194;DHT22;1608;50.860;13.466;2022-11-02T14:03:54;14.50;99.90
3194;DHT22;1608;50.860;13.466;2022-11-02T14:06:22;14.50;99.90
3194;DHT22;1608;50.860;13.466;2022-11-02T14:08:53;14.10;99.90
3194;DHT22;1608;50.860;13.466;2022-11-02T14:11:27;14.60;99.90
3194;DHT22;1608;50.860;13.466;2022-11-02T14:17:09;14.50;99.90
3194;DHT22;1608;50.860;13.466;2022-11-02T14:19:54;14.50;99.90
3194;DHT22;1608;50.860;13.466;2022-11-02T14:25:13;14.40;99.90
3194;DHT22;1608;50.860;13.466;2022-11-02T14:27:40;14.40;99.90
3194;DHT22;1608;50.860;13.466;2022-11-02T14:30:44;14.30;99.90
3194;DHT22;1608;50.860;13.466;2022-11-02T14:33:33;14.30;99.90
3194;DHT22;1608;50.860;13.466;2022-11-02T14:36:06;14.20;99.90
3194;DHT22;1608;50.860;13.466;2022-11-02T14:38:47;14.30;99.90
3194;DHT22;1608;50.860;13.466;2022-11-02T14:41:33;14.30;99.90
3194;DHT22;1608;50.860;13.466;2022-11-02T14:44:24;13.90;99.90
3194;DHT22;1608;50.860;13.466;2022-11-02T14:47:06;14.20;99.90
3194;DHT22;1608;50.860;13.466;2022-11-02T14:49:37;14.00;99.90
3194;DHT22;1608;50.860;13.466;2022-11-02T14:52:25;14.10;99.90
3194;DHT22;1608;50.860;13.466;2022-11-02T14:54:59;14.10;99.90
3194;DHT22;1608;50.860;13.466;2022-11-02T14:57:29;14.00;99.90
3194;DHT22;1608;50.860;13.466;2022-11-02T14:59:58;13.90;99.90
3194;DHT22;1608;50.860;13.466;2022-11-02T15:02:30;14.00;99.90
3194;DHT22;1608;50.860;13.466;2022-11-02T15:04:59;13.70;99.90
3194;DHT22;1608;50.860;13.466;2022-11-02T15:07:33;13.70;99.90
3194;DHT22;1608;50.860;13.466;2022-11-02T15:10:01;13.60;99.90
3194;DHT22;1608;50.860;13.466;2022-11-02T15:12:32;13.60;99.90
3194;DHT22;1608;50.860;13.466;2022-11-02T15:17:58;13.40;99.90
3194;DHT22;1608;50.860;13.466;2022-11-02T15:20:30;13.30;99.90
3194;DHT22;1608;50.860;13.466;2022-11-02T15:23:03;13.40;99.90
3194;DHT22;1608;50.860;13.466;2022-11-02T15:25:35;13.10;99.90
3194;DHT22;1608;50.860;13.466;2022-11-02T15:28:05;13.20;99.90
3194;DHT22;1608;50.860;13.466;2022-11-02T15:30:37;13.80;99.90
3194;DHT22;1608;50.860;13.466;2022-11-02T15:35:35;12.90;99.90
3194;DHT22;1608;50.860;13.466;2022-11-02T15:38:05;12.90;99.90
3194;DHT22;1608;50.860;13.466;2022-11-02T15:40:34;12.80;99.90
3194;DHT22;1608;50.860;13.466;2022-11-02T15:43:17;12.70;99.90
3194;DHT22;1608;50.860;13.466;2022-11-02T15:45:52;12.50;99.90
3194;DHT22;1608;50.860;13.466;2022-11-02T15:48:35;12.50;99.90
3194;DHT22;1608;50.860;13.466;2022-11-02T15:51:12;12.40;99.90
3194;DHT22;1608;50.860;13.466;2022-11-02T15:53:59;11.80;99.90
3194;DHT22;1608;50.860;13.466;2022-11-02T15:56:44;12.40;99.90
3194;DHT22;1608;50.860;13.466;2022-11-02T16:02:23;12.40;99.90
3194;DHT22;1608;50.860;13.466;2022-11-02T16:04:52;12.40;99.90
3194;DHT22;1608;50.860;13.466;2022-11-02T16:07:20;12.20;99.90
3194;DHT22;1608;50.860;13.466;2022-11-02T16:09:48;12.20;99.90
3194;DHT22;1608;50.860;13.466;2022-11-02T16:12:17;12.10;99.90
3194;DHT22;1608;50.860;13.466;2022-11-02T16:14:50;11.70;99.90
3194;DHT22;1608;50.860;13.466;2022-11-02T16:17:18;11.80;99.90
3194;DHT22;1608;50.860;13.466;2022-11-02T16:22:21;11.70;99.90
3194;DHT22;1608;50.860;13.466;2022-11-02T16:24:52;11.70;99.90
3194;DHT22;1608;50.860;13.466;2022-11-02T16:27:20;11.60;99.90
3194;DHT22;1608;50.860;13.466;2022-11-02T16:29:47;11.60;99.90
3194;DHT22;1608;50.860;13.466;2022-11-02T16:32:15;12.60;99.90
3194;DHT22;1608;50.860;13.466;2022-11-02T16:34:42;11.60;99.90
3194;DHT22;1608;50.860;13.466;2022-11-02T16:37:11;11.50;99.90
3194;DHT22;1608;50.860;13.466;2022-11-02T16:39:44;11.40;99.90
3194;DHT22;1608;50.860;13.466;2022-11-02T16:42:16;11.30;99.90
3194;DHT22;1608;50.860;13.466;2022-11-02T16:44:53;11.00;99.90
3194;DHT22;1608;50.860;13.466;2022-11-02T16:47:28;11.30;99.90
3194;DHT22;1608;50.860;13.466;2022-11-02T16:49:58;10.90;99.90
3194;DHT22;1608;50.860;13.466;2022-11-02T16:52:29;10.50;99.90
3194;DHT22;1608;50.860;13.466;2022-11-02T16:57:26;11.00;99.90
3194;DHT22;1608;50.860;13.466;2022-11-02T16:59:55;11.00;99.90
3194;DHT22;1608;50.860;13.466;2022-11-02T17:02:30;11.00;99.90
3194;DHT22;1608;50.860;13.466;2022-11-02T17:04:57;11.00;99.90
3194;DHT22;1608;50.860;13.466;2022-11-02T17:07:29;11.20;99.90
3194;DHT22;1608;50.860;13.466;2022-11-02T17:09:59;11.00;99.90
3194;DHT22;1608;50.860;13.466;2022-11-02T17:12:32;11.00;99.90
3194;DHT22;1608;50.860;13.466;2022-11-02T17:15:02;10.90;99.90
3194;DHT22;1608;50.860;13.466;2022-11-02T17:17:34;10.40;99.90
3194;DHT22;1608;50.860;13.466;2022-11-02T17:20:16;10.80;99.90
3194;DHT22;1608;50.860;13.466;2022-11-02T17:23:03;10.60;99.90
3194;DHT22;1608;50.860;13.466;2022-11-02T17:25:31;10.90;99.90
3194;DHT22;1608;50.860;13.466;2022-11-02T17:28:01;10.60;99.90
3194;DHT22;1608;50.860;13.466;2022-11-02T17:30:44;10.50;99.90
3194;DHT22;1608;50.860;13.466;2022-11-02T17:33:22;10.60;99.90
3194;DHT22;1608;50.860;13.466;2022-11-02T17:35:51;10.40;99.90
3194;DHT22;1608;50.860;13.466;2022-11-02T17:38:23;10.30;99.90
3194;DHT22;1608;50.860;13.466;2022-11-02T17:40:51;10.30;99.90
3194;DHT22;1608;50.860;13.466;2022-11-02T17:43:20;10.30;99.90
3194;DHT22;1608;50.860;13.466;2022-11-02T17:45:52;10.20;99.90
3194;DHT22;1608;50.860;13.466;2022-11-02T17:48:19;9.90;99.90
3194;DHT22;1608;50.860;13.466;2022-11-02T17:50:47;10.20;99.90
3194;DHT22;1608;50.860;13.466;2022-11-02T17:55:44;10.00;99.90
3194;DHT22;1608;50.860;13.466;2022-11-02T18:00:41;9.70;99.90
3194;DHT22;1608;50.860;13.466;2022-11-02T18:03:12;9.70;99.90
3194;DHT22;1608;50.860;13.466;2022-11-02T18:08:07;9.70;99.90
3194;DHT22;1608;50.860;13.466;2022-11-02T18:10:37;9.80;99.90
3194;DHT22;1608;50.860;13.466;2022-11-02T18:15:32;8.60;99.90
3194;DHT22;1608;50.860;13.466;2022-11-02T18:18:00;9.70;99.90
3194;DHT22;1608;50.860;13.466;2022-11-02T18:20:27;9.90;99.90
3194;DHT22;1608;50.860;13.466;2022-11-02T18:25:23;9.70;99.90
3194;DHT22;1608;50.860;13.466;2022-11-02T18:27:51;9.40;99.90
3194;DHT22;1608;50.860;13.466;2022-11-02T18:35:15;9.60;99.90
3194;DHT22;1608;50.860;13.466;2022-11-02T18:37:43;9.60;99.90
3194;DHT22;1608;50.860;13.466;2022-11-02T18:40:11;9.50;99.90
3194;DHT22;1608;50.860;13.466;2022-11-02T18:42:40;9.40;99.90
3194;DHT22;1608;50.860;13.466;2022-11-02T18:45:08;9.40;99.90
3194;DHT22;1608;50.860;13.466;2022-11-02T18:50:03;9.40;99.90
3194;DHT22;1608;50.860;13.466;2022-11-02T18:52:32;9.20;99.90
3194;DHT22;1608;50.860;13.466;2022-11-02T18:54:59;9.20;99.90
3194;DHT22;1608;50.860;13.466;2022-11-02T18:57:28;9.30;99.90
3194;DHT22;1608;50.860;13.466;2022-11-02T18:59:55;9.20;99.90
3194;DHT22;1608;50.860;13.466;2022-11-02T19:10:02;9.10;99.90
3194;DHT22;1608;50.860;13.466;2022-11-02T19:14:57;9.00;99.90
3194;DHT22;1608;50.860;13.466;2022-11-02T19:17:25;9.00;99.90
3194;DHT22;1608;50.860;13.466;2022-11-02T19:19:52;9.10;99.90
3194;DHT22;1608;50.860;13.466;2022-11-02T19:22:20;9.00;99.90
3194;DHT22;1608;50.860;13.466;2022-11-02T19:27:16;8.90;99.90
3194;DHT22;1608;50.860;13.466;2022-11-02T19:29:43;9.00;99.90
3194;DHT22;1608;50.860;13.466;2022-11-02T19:32:10;9.30;99.90
3194;DHT22;1608;50.860;13.466;2022-11-02T19:34:38;8.70;99.90
3194;DHT22;1608;50.860;13.466;2022-11-02T19:37:05;8.50;99.90
3194;DHT22;1608;50.860;13.466;2022-11-02T19:39:32;8.80;99.90